KARV/ARV METAR and TAF weather

Enter ICAO airport designator
Station Type Date Time Source
KARV METAR 2022/12/08 11:55 UTC NOAA

KARV 081155Z AUTO 13003KT 5SM -SN CLR M15/M17 A3035 RMK AO2 T11501166 11132 21170


Station Type Date Time Source
KARV Decoded METAR 2022/12/08 11:55 UTC NOAA

Minocqua/Woodruff, Lakeland Airport/Noble F. Lee Memorial Field, WI, United States (KARV) 45-56N 089-44W
Dec 08, 2022 - 06:55 AM EST / 2022.12.08 1155 UTC
Wind: from the SE (130 degrees) at 3 MPH (3 KT):0
Visibility: 5 mile(s):0
Sky conditions: clear
Weather: light snow
Temperature: 5.0 F (-15.0 C)
Dew Point: 2.1 F (-16.6 C)
Relative Humidity: 87%
Pressure (altimeter): 30.35 in. Hg (1027 hPa)
ob: KARV 081155Z AUTO 13003KT 5SM -SN CLR M15/M17 A3035 RMK AO2 T11501166 11132 21170
cycle: 12

Station Type Date Time Source
KARV TAF UTC NOAA

Error!

Example: see airport list